Costa Marques, Brazil
Current Conditions -  °F | °C
As of 5:00 PM on Sunday 23 Nov 2014 (Local Time) from SLSA Reporting Station
Broken Clouds Broken Clouds  
Wind Chill: 23°   Ceiling: 7000
Heat Index: 23°   Visibility: 6mi
Dew Point: 23°   Wind: 5mph
Humidity: 100%   Direction: 90°E
Pressure: 29.71"   Gusts: NA
Location:  12.45°S, 64.23°W
Report Text: SLSA 232100Z 09004KT 9999 FEW006 BKN070 BKN200 23/23 Q1006
Loading
Personal Weather Stations






























Interactive Weather Map New forecast layout! Learn more

10-Day Weather Forecast

Advertisements
Track Severe Weather on mobile